Fort Hunter, New York
Current Conditions -  °F | °C
As of 12:35 PM on Friday 31 Oct 2014 (Local Time) from KNY0 Reporting Station
Clear Clear  
Wind Chill: 40°   Ceiling: Unl
Heat Index: 43°   Visibility: 10mi
Dew Point: 32°   Wind: 5mph
Humidity: 65%   Direction: 170°S
Pressure: 30"   Gusts: NA
Location:  42.94°N, 74.28°W
Report Text: KNY0 311635Z AUTO 17004KT 10SM CLR 06/00 A3000 RMK AO2 T00610000
Loading
Personal Weather Stations






























Interactive Weather Map
Tropical Storm Tracking
New forecast layout! Learn more

10-Day Weather Forecast

Advertisements
Track Severe Weather on mobile